METAR Data

Data at: 0227 UTC 21 Sep 2018

METAR for:KSDL (Scottsdale Muni, AZ, US)
Text:KSDL 210153Z 23004KT 10SM CLR 33/14 A2982 RMK AO2 SLP071 T03330139
Temperature: 33.3°C ( 92°F)
Dewpoint: 13.9°C ( 57°F) [RH = 31%]
Pressure (altimeter):29.82 inches Hg (1009.9 mb) [Sea level pressure: 1007.1 mb]
Winds:from the SW (230 degrees) at 5 MPH (4 knots; 2.1 m/s)
Visibility:10 or more sm (16+ km)
Ceiling:at least 12,000 feet AGL
Clouds:sky clear below 12,000 feet AGL